Time;durP1;ratioP1;P1;durP2;ratioP2;P2;SDS_P1;SDS_P2;PMS_P1;PMS_P2;Temp;Humidity;BMP_temperature;BMP_pressure;BME280_temperature;BME280_humidity;BME280_pressure;Samples;Min_cycle;Max_cycle;Signal;HPM_P1;HPM_P2
2024/03/28 00:01:46;;;;;;;1.50;0.80;;;;;;;;;;5097681;28;20381;-79
2024/03/28 00:04:15;;;;;;;1.38;1.00;;;;;;;;;;5096605;28;20374;-79
2024/03/28 00:06:41;;;;;;;1.77;1.00;;;;;;;;;;5097507;28;20445;-78
2024/03/28 00:09:07;;;;;;;1.30;1.20;;;;;;;;;;5096922;28;20381;-79
2024/03/28 00:11:33;;;;;;;2.00;1.00;;;;;;;;;;5097052;28;20374;-79
2024/03/28 00:13:59;;;;;;;1.87;1.07;;;;;;;;;;5097622;28;20385;-79
2024/03/28 00:16:25;;;;;;;1.30;1.13;;;;;;;;;;5097021;28;20435;-79
2024/03/28 00:18:51;;;;;;;1.13;1.02;;;;;;;;;;5097475;28;20756;-79
2024/03/28 00:21:17;;;;;;;2.00;1.10;;;;;;;;;;5096405;28;20410;-79
2024/03/28 00:23:43;;;;;;;1.50;1.25;;;;;;;;;;5097105;28;20393;-79
2024/03/28 00:26:09;;;;;;;1.25;1.13;;;;;;;;;;5097395;28;20460;-79
2024/03/28 00:28:35;;;;;;;1.17;1.10;;;;;;;;;;5096515;28;20785;-79
2024/03/28 00:31:01;;;;;;;1.17;1.08;;;;;;;;;;5096510;28;20440;-79
2024/03/28 00:33:28;;;;;;;1.10;1.00;;;;;;;;;;5097531;28;20402;-79
2024/03/28 00:35:54;;;;;;;1.00;1.00;;;;;;;;;;5096680;28;20863;-79
2024/03/28 00:38:20;;;;;;;1.30;1.20;;;;;;;;;;5096589;28;20462;-79
2024/03/28 00:40:47;;;;;;;1.30;1.20;;;;;;;;;;5095873;28;20592;-79
2024/03/28 00:43:13;;;;;;;1.47;1.20;;;;;;;;;;5095875;28;20444;-79
2024/03/28 00:45:39;;;;;;;1.35;1.17;;;;;;;;;;5096778;28;20373;-79
2024/03/28 00:48:06;;;;;;;1.17;1.02;;;;;;;;;;5096193;28;20731;-79
2024/03/28 00:50:35;;;;;;;1.42;1.33;;;;;;;;;;5096536;28;20421;-79
2024/03/28 00:53:01;;;;;;;1.27;1.00;;;;;;;;;;5096706;28;20721;-79
2024/03/28 00:55:27;;;;;;;1.42;1.33;;;;;;;;;;5096312;28;20438;-79
2024/03/28 00:57:53;;;;;;;1.50;1.30;;;;;;;;;;5096386;28;20382;-79
2024/03/28 01:00:20;;;;;;;1.48;1.23;;;;;;;;;;5096011;28;20416;-79
2024/03/28 01:02:46;;;;;;;1.83;1.27;;;;;;;;;;5096276;28;20762;-79
2024/03/28 01:05:12;;;;;;;1.90;1.50;;;;;;;;;;5096128;28;20378;-79
2024/03/28 01:07:38;;;;;;;1.40;1.30;;;;;;;;;;5095947;28;20370;-79
2024/03/28 01:10:04;;;;;;;1.60;1.40;;;;;;;;;;5096157;28;20389;-79
2024/03/28 01:12:30;;;;;;;1.45;1.35;;;;;;;;;;5096585;28;20390;-79
2024/03/28 01:14:56;;;;;;;2.40;1.40;;;;;;;;;;5096204;28;20378;-79
2024/03/28 01:17:23;;;;;;;1.55;1.40;;;;;;;;;;5095997;28;20386;-79
2024/03/28 01:19:49;;;;;;;1.90;1.67;;;;;;;;;;5095268;28;20478;-79
2024/03/28 01:22:15;;;;;;;1.40;1.30;;;;;;;;;;5095245;28;20382;-79
2024/03/28 01:24:41;;;;;;;2.40;1.40;;;;;;;;;;5095433;28;20814;-78
2024/03/28 01:27:08;;;;;;;1.70;1.60;;;;;;;;;;5094766;28;20840;-78
2024/03/28 01:29:34;;;;;;;2.10;1.50;;;;;;;;;;5094640;28;20968;-79
2024/03/28 01:32:00;;;;;;;1.80;1.70;;;;;;;;;;5095058;28;20414;-79
2024/03/28 01:34:29;;;;;;;2.10;2.00;;;;;;;;;;5095005;28;20787;-79
2024/03/28 01:36:55;;;;;;;2.50;2.30;;;;;;;;;;5094915;28;20464;-79
2024/03/28 01:39:21;;;;;;;2.50;2.38;;;;;;;;;;5093350;28;20449;-79
2024/03/28 01:41:50;;;;;;;2.47;1.90;;;;;;;;;;5094884;28;20374;-79
2024/03/28 01:44:16;;;;;;;2.50;2.33;;;;;;;;;;5094067;28;20424;-79
2024/03/28 01:46:43;;;;;;;1.95;1.85;;;;;;;;;;5094773;28;20378;-79
2024/03/28 01:49:10;;;;;;;2.67;2.47;;;;;;;;;;5094616;28;20382;-79
2024/03/28 01:51:36;;;;;;;2.50;2.30;;;;;;;;;;5099436;28;20471;-79
2024/03/28 01:54:03;;;;;;;2.22;2.05;;;;;;;;;;5115472;28;20467;-79
2024/03/28 01:56:29;;;;;;;1.85;1.75;;;;;;;;;;5115248;28;20438;-79
2024/03/28 01:58:55;;;;;;;1.80;1.70;;;;;;;;;;5115493;28;20395;-79
2024/03/28 02:01:21;;;;;;;2.40;1.77;;;;;;;;;;5109468;28;20489;-79
2024/03/28 02:03:47;;;;;;;2.72;2.00;;;;;;;;;;5094848;28;20439;-79
2024/03/28 02:06:13;;;;;;;2.20;2.00;;;;;;;;;;5094703;28;20385;-79
2024/03/28 02:08:39;;;;;;;2.72;2.30;;;;;;;;;;5094113;28;20424;-79
2024/03/28 02:11:05;;;;;;;3.42;3.13;;;;;;;;;;5094588;28;20385;-79
2024/03/28 02:13:31;;;;;;;3.78;3.47;;;;;;;;;;5094315;28;20393;-78
2024/03/28 02:15:57;;;;;;;4.20;3.80;;;;;;;;;;5094483;28;20382;-79
2024/03/28 02:18:23;;;;;;;3.88;3.58;;;;;;;;;;5093864;28;20393;-79
2024/03/28 02:20:49;;;;;;;3.95;3.55;;;;;;;;;;5094625;28;20516;-79
2024/03/28 02:23:15;;;;;;;3.70;3.40;;;;;;;;;;5095095;28;20386;-79
2024/03/28 02:25:47;;;;;;;3.17;2.88;;;;;;;;;;5095457;28;20374;-79
2024/03/28 02:28:13;;;;;;;3.10;2.80;;;;;;;;;;5094984;28;20440;-79
2024/03/28 02:30:42;;;;;;;3.10;2.90;;;;;;;;;;5095389;28;20397;-79
2024/03/28 02:33:08;;;;;;;3.00;2.80;;;;;;;;;;5094260;28;20394;-79
2024/03/28 02:35:34;;;;;;;2.87;2.67;;;;;;;;;;5094262;28;20940;-79
2024/03/28 02:38:00;;;;;;;4.30;2.90;;;;;;;;;;5091883;28;20480;-79
2024/03/28 02:40:27;;;;;;;3.10;2.90;;;;;;;;;;5093851;28;20397;-79
2024/03/28 02:42:53;;;;;;;3.00;2.80;;;;;;;;;;5094268;28;20890;-79
2024/03/28 02:45:19;;;;;;;2.97;2.65;;;;;;;;;;5094155;28;20386;-79
2024/03/28 02:47:45;;;;;;;3.20;2.70;;;;;;;;;;5093686;28;20370;-79
2024/03/28 02:50:11;;;;;;;3.60;2.95;;;;;;;;;;5094368;28;20491;-79
2024/03/28 02:52:38;;;;;;;3.20;2.90;;;;;;;;;;5097893;28;20413;-79
2024/03/28 02:55:04;;;;;;;3.42;3.17;;;;;;;;;;5098188;28;20393;-79
2024/03/28 02:57:30;;;;;;;3.33;3.10;;;;;;;;;;5114052;28;20381;-79
2024/03/28 02:59:56;;;;;;;3.30;3.10;;;;;;;;;;5118174;28;20885;-79
2024/03/28 03:02:23;;;;;;;3.40;3.10;;;;;;;;;;5118208;28;20373;-79
2024/03/28 03:04:49;;;;;;;3.38;3.08;;;;;;;;;;5118855;28;20424;-79
2024/03/28 03:07:15;;;;;;;3.42;3.13;;;;;;;;;;5118356;28;20377;-79
2024/03/28 03:09:41;;;;;;;2.80;2.60;;;;;;;;;;5117964;28;20372;-79
2024/03/28 03:12:07;;;;;;;3.10;2.80;;;;;;;;;;5118117;28;20452;-78
2024/03/28 03:14:33;;;;;;;3.42;3.13;;;;;;;;;;5118094;28;20375;-79
2024/03/28 03:16:59;;;;;;;3.05;2.85;;;;;;;;;;5117941;28;20388;-79
2024/03/28 03:19:25;;;;;;;3.30;3.00;;;;;;;;;;5117946;28;20404;-78
2024/03/28 03:21:52;;;;;;;2.90;2.70;;;;;;;;;;5117834;28;20462;-78
2024/03/28 03:24:21;;;;;;;3.27;2.97;;;;;;;;;;5117642;28;20369;-79
2024/03/28 03:26:49;;;;;;;3.47;3.25;;;;;;;;;;5117186;28;20909;-78
2024/03/28 03:34:54;;;;;;;3.50;3.20;;;;;;;;;;5117317;28;20417;-78
2024/03/28 03:37:21;;;;;;;4.30;3.25;;;;;;;;;;5117530;28;20854;-79
2024/03/28 03:39:47;;;;;;;3.35;3.15;;;;;;;;;;5117585;28;20470;-79
2024/03/28 03:42:14;;;;;;;3.60;3.30;;;;;;;;;;5117773;28;20405;-79
2024/03/28 03:44:40;;;;;;;3.92;3.00;;;;;;;;;;5117695;28;20372;-79
2024/03/28 03:47:06;;;;;;;3.60;3.30;;;;;;;;;;5117000;28;20383;-78
2024/03/28 03:49:32;;;;;;;3.20;3.00;;;;;;;;;;5117153;28;20739;-79
2024/03/28 03:51:58;;;;;;;3.75;3.45;;;;;;;;;;5104165;28;20435;-78
2024/03/28 03:54:24;;;;;;;3.73;3.43;;;;;;;;;;5097036;28;20867;-78
2024/03/28 03:56:50;;;;;;;3.83;3.53;;;;;;;;;;5096998;28;20379;-78
2024/03/28 03:59:17;;;;;;;3.45;3.20;;;;;;;;;;5096202;28;20428;-79
2024/03/28 04:01:43;;;;;;;3.70;3.38;;;;;;;;;;5096146;28;20452;-78
2024/03/28 04:04:09;;;;;;;5.70;5.03;;;;;;;;;;5095354;28;20373;-78
2024/03/28 04:06:35;;;;;;;4.22;3.92;;;;;;;;;;5095753;28;20379;-78
2024/03/28 04:09:01;;;;;;;3.80;3.50;;;;;;;;;;5096581;28;20836;-79
2024/03/28 04:11:27;;;;;;;4.10;3.80;;;;;;;;;;5096412;28;20385;-79
2024/03/28 04:13:53;;;;;;;3.67;3.45;;;;;;;;;;5095960;28;20405;-79
2024/03/28 04:16:19;;;;;;;3.72;3.42;;;;;;;;;;5112423;28;20384;-79
2024/03/28 04:18:45;;;;;;;3.38;3.15;;;;;;;;;;5116724;28;20463;-79
2024/03/28 04:21:11;;;;;;;3.80;3.50;;;;;;;;;;5116938;28;20458;-79
2024/03/28 04:23:37;;;;;;;3.80;3.50;;;;;;;;;;5116621;28;20387;-78
2024/03/28 04:26:04;;;;;;;3.72;3.42;;;;;;;;;;5116215;28;20846;-78
2024/03/28 04:28:30;;;;;;;3.80;3.50;;;;;;;;;;5116104;28;20384;-78
2024/03/28 04:30:56;;;;;;;4.22;3.80;;;;;;;;;;5116095;28;20717;-78
2024/03/28 04:33:22;;;;;;;4.03;3.72;;;;;;;;;;5096352;28;20398;-78
2024/03/28 04:35:48;;;;;;;4.15;3.85;;;;;;;;;;5095771;28;20417;-78
2024/03/28 04:38:15;;;;;;;3.92;3.63;;;;;;;;;;5095143;28;20386;-79
2024/03/28 04:40:41;;;;;;;4.10;3.80;;;;;;;;;;5095189;28;20406;-79
2024/03/28 04:43:09;;;;;;;4.13;3.83;;;;;;;;;;5095163;28;20466;-78
2024/03/28 04:45:35;;;;;;;4.30;4.00;;;;;;;;;;5095429;28;20406;-79
2024/03/28 04:48:01;;;;;;;4.40;4.10;;;;;;;;;;5094514;28;20410;-78
2024/03/28 04:50:27;;;;;;;4.32;4.03;;;;;;;;;;5095489;28;20428;-79
2024/03/28 04:52:54;;;;;;;4.60;4.25;;;;;;;;;;5094256;28;20386;-79
2024/03/28 04:55:20;;;;;;;5.20;4.80;;;;;;;;;;5094778;28;20410;-79
2024/03/28 04:57:46;;;;;;;4.90;4.50;;;;;;;;;;5095656;28;20408;-79
2024/03/28 05:00:12;;;;;;;5.28;4.88;;;;;;;;;;5095239;28;20402;-79
2024/03/28 05:02:38;;;;;;;5.17;4.73;;;;;;;;;;5095153;28;20459;-79
2024/03/28 05:05:05;;;;;;;5.30;4.90;;;;;;;;;;5094728;28;20439;-78
2024/03/28 05:07:31;;;;;;;5.00;4.60;;;;;;;;;;5091198;28;20442;-78
2024/03/28 05:09:57;;;;;;;5.47;4.97;;;;;;;;;;5092918;28;20412;-78
2024/03/28 05:12:23;;;;;;;5.00;4.60;;;;;;;;;;5093344;28;20736;-79
2024/03/28 05:14:49;;;;;;;5.53;5.13;;;;;;;;;;5093836;28;20370;-79
2024/03/28 05:17:16;;;;;;;5.10;4.70;;;;;;;;;;5095131;28;20382;-79
2024/03/28 05:19:42;;;;;;;4.88;4.47;;;;;;;;;;5095232;28;20477;-79
2024/03/28 05:22:08;;;;;;;5.00;4.60;;;;;;;;;;5094345;28;20859;-79
2024/03/28 05:24:34;;;;;;;4.95;4.55;;;;;;;;;;5094555;28;20846;-80
2024/03/28 05:27:02;;;;;;;5.30;4.90;;;;;;;;;;5095628;28;20386;-79
2024/03/28 05:29:28;;;;;;;5.50;4.80;;;;;;;;;;5095379;28;20882;-79
2024/03/28 05:31:54;;;;;;;5.80;5.30;;;;;;;;;;5094182;28;20401;-80
2024/03/28 05:34:20;;;;;;;5.80;5.30;;;;;;;;;;5094693;28;20459;-79
2024/03/28 05:36:46;;;;;;;6.78;6.18;;;;;;;;;;5094458;28;20386;-80
2024/03/28 05:39:14;;;;;;;6.32;5.82;;;;;;;;;;5094859;28;20445;-80
2024/03/28 05:41:40;;;;;;;6.20;5.72;;;;;;;;;;5095098;28;20382;-80
2024/03/28 05:44:06;;;;;;;6.28;5.78;;;;;;;;;;5095787;28;20825;-80
2024/03/28 05:46:32;;;;;;;8.73;7.93;;;;;;;;;;5095382;28;20533;-80
2024/03/28 05:48:58;;;;;;;8.23;7.50;;;;;;;;;;5095864;28;20447;-80
2024/03/28 05:51:24;;;;;;;7.50;6.90;;;;;;;;;;5095113;28;20378;-80
2024/03/28 05:53:50;;;;;;;8.55;7.63;;;;;;;;;;5095133;28;20393;-80
2024/03/28 05:56:18;;;;;;;8.00;7.40;;;;;;;;;;5094756;28;20469;-80
2024/03/28 05:58:44;;;;;;;7.82;7.13;;;;;;;;;;5094543;28;20415;-80
2024/03/28 06:01:10;;;;;;;7.70;7.10;;;;;;;;;;5094964;28;20408;-80
2024/03/28 06:03:36;;;;;;;7.85;7.22;;;;;;;;;;5095753;28;20382;-80
2024/03/28 06:06:03;;;;;;;7.13;6.63;;;;;;;;;;5095452;28;20374;-80
2024/03/28 06:08:29;;;;;;;7.88;7.28;;;;;;;;;;5095144;28;20716;-80
2024/03/28 06:10:55;;;;;;;7.37;6.73;;;;;;;;;;5095502;28;20450;-80
2024/03/28 06:13:22;;;;;;;7.20;6.60;;;;;;;;;;5095268;28;20397;-80
2024/03/28 06:15:49;;;;;;;7.22;6.63;;;;;;;;;;5095652;28;20374;-80
2024/03/28 06:18:15;;;;;;;7.45;6.90;;;;;;;;;;5095475;28;20413;-80
2024/03/28 06:20:41;;;;;;;7.03;6.43;;;;;;;;;;5094226;28;20402;-81
2024/03/28 06:23:08;;;;;;;8.07;7.28;;;;;;;;;;5095488;28;20457;-81
2024/03/28 06:25:40;;;;;;;8.45;7.70;;;;;;;;;;5096641;28;20451;-81
2024/03/28 06:28:08;;;;;;;8.07;7.38;;;;;;;;;;5100152;28;20378;-80
2024/03/28 06:30:35;;;;;;;8.32;7.63;;;;;;;;;;5099677;28;20394;-80
2024/03/28 06:33:01;;;;;;;9.50;8.70;;;;;;;;;;5098908;28;20459;-80
2024/03/28 06:35:28;;;;;;;10.00;9.00;;;;;;;;;;5098632;28;20377;-80
2024/03/28 06:37:54;;;;;;;9.57;8.77;;;;;;;;;;5099165;28;20390;-80
2024/03/28 06:40:20;;;;;;;10.43;9.33;;;;;;;;;;5098671;28;20921;-80
2024/03/28 06:42:46;;;;;;;9.57;8.85;;;;;;;;;;5098745;28;20386;-81
2024/03/28 06:45:11;;;;;;;10.15;8.77;;;;;;;;;;5098771;28;20397;-81
2024/03/28 06:47:37;;;;;;;9.15;8.45;;;;;;;;;;5098936;28;20366;-80
2024/03/28 06:50:04;;;;;;;8.82;8.13;;;;;;;;;;5099542;28;20378;-80
2024/03/28 06:52:30;;;;;;;8.65;7.95;;;;;;;;;;5099338;28;20423;-81
2024/03/28 06:54:56;;;;;;;9.38;8.65;;;;;;;;;;5099355;28;20836;-80
2024/03/28 06:57:22;;;;;;;8.67;7.90;;;;;;;;;;5099158;28;20476;-80
2024/03/28 06:59:49;;;;;;;7.80;7.20;;;;;;;;;;5098278;28;20940;-80
2024/03/28 07:02:15;;;;;;;8.38;7.68;;;;;;;;;;5099044;28;20428;-81
2024/03/28 07:04:41;;;;;;;10.52;9.70;;;;;;;;;;5098611;28;20370;-81
2024/03/28 07:07:07;;;;;;;11.68;10.57;;;;;;;;;;5098281;28;20689;-80
2024/03/28 07:09:33;;;;;;;14.75;12.00;;;;;;;;;;5097884;28;20382;-80
2024/03/28 07:11:59;;;;;;;13.43;12.13;;;;;;;;;;5098272;28;20720;-80
2024/03/28 07:14:25;;;;;;;14.55;12.10;;;;;;;;;;5098187;28;20767;-80
2024/03/28 07:16:51;;;;;;;13.13;11.73;;;;;;;;;;5098617;28;20374;-80
2024/03/28 07:19:17;;;;;;;11.95;10.77;;;;;;;;;;5097120;28;20405;-81
2024/03/28 07:21:43;;;;;;;12.13;10.95;;;;;;;;;;5097582;28;20852;-81
2024/03/28 07:24:09;;;;;;;11.95;10.73;;;;;;;;;;5098392;28;20385;-81
2024/03/28 07:26:36;;;;;;;11.50;10.50;;;;;;;;;;5098574;28;20490;-81
2024/03/28 07:29:02;;;;;;;12.93;11.63;;;;;;;;;;5098457;28;20413;-80
2024/03/28 07:31:30;;;;;;;13.30;12.10;;;;;;;;;;5098204;28;20402;-80
2024/03/28 07:33:56;;;;;;;12.73;11.48;;;;;;;;;;5098718;28;20374;-81
2024/03/28 07:36:22;;;;;;;12.75;11.45;;;;;;;;;;5097750;28;20439;-80
2024/03/28 07:38:48;;;;;;;12.68;10.95;;;;;;;;;;5097820;28;20374;-80
2024/03/28 07:41:14;;;;;;;11.30;9.75;;;;;;;;;;5098082;28;20410;-81
2024/03/28 07:43:41;;;;;;;11.35;10.35;;;;;;;;;;5097714;28;20370;-80
2024/03/28 07:46:07;;;;;;;7.78;7.18;;;;;;;;;;5096878;28;20412;-80
2024/03/28 07:48:33;;;;;;;8.30;7.50;;;;;;;;;;5097371;28;20844;-80
2024/03/28 07:51:03;;;;;;;8.82;7.93;;;;;;;;;;5097050;28;20385;-80
2024/03/28 07:53:29;;;;;;;9.30;8.48;;;;;;;;;;5096984;28;20426;-80
2024/03/28 07:55:55;;;;;;;9.17;8.27;;;;;;;;;;5097093;28;20389;-80
2024/03/28 07:58:22;;;;;;;9.75;8.85;;;;;;;;;;5096210;28;20378;-80
2024/03/28 08:00:48;;;;;;;10.45;9.52;;;;;;;;;;5079500;28;20405;-80
2024/03/28 08:03:16;;;;;;;8.00;7.30;;;;;;;;;;5097710;28;20412;-80
2024/03/28 08:05:49;;;;;;;8.45;7.47;;;;;;;;;;5097119;28;20404;-81
2024/03/28 08:08:16;;;;;;;12.07;7.50;;;;;;;;;;5097052;28;20421;-80
2024/03/28 08:10:42;;;;;;;10.40;7.75;;;;;;;;;;5097175;28;20707;-81
2024/03/28 08:13:09;;;;;;;10.68;8.45;;;;;;;;;;5097196;28;20385;-80
2024/03/28 08:15:36;;;;;;;11.40;8.50;;;;;;;;;;5096489;28;20863;-80
2024/03/28 08:18:02;;;;;;;9.30;8.45;;;;;;;;;;5096163;28;20461;-80
2024/03/28 08:20:28;;;;;;;9.33;8.43;;;;;;;;;;5096217;28;20917;-80
2024/03/28 08:22:54;;;;;;;9.35;8.38;;;;;;;;;;5096821;28;20385;-80
2024/03/28 08:25:22;;;;;;;9.85;7.63;;;;;;;;;;5096685;28;20417;-81
2024/03/28 08:27:48;;;;;;;15.00;8.55;;;;;;;;;;5096727;28;20381;-80
2024/03/28 08:30:15;;;;;;;11.70;8.60;;;;;;;;;;5097204;28;20810;-80
2024/03/28 08:32:41;;;;;;;9.80;7.07;;;;;;;;;;5096457;28;20398;-80
2024/03/28 08:35:10;;;;;;;7.32;6.63;;;;;;;;;;5096340;28;20401;-80
2024/03/28 08:37:39;;;;;;;6.68;6.00;;;;;;;;;;5094447;28;20859;-80
2024/03/28 08:40:09;;;;;;;5.82;5.32;;;;;;;;;;5096912;28;20891;-80
2024/03/28 08:42:35;;;;;;;5.83;5.23;;;;;;;;;;5096641;28;20508;-80
2024/03/28 08:45:02;;;;;;;5.78;5.28;;;;;;;;;;5096221;28;20370;-80
2024/03/28 08:47:28;;;;;;;5.53;4.85;;;;;;;;;;5095944;28;20854;-80
2024/03/28 08:49:54;;;;;;;6.18;5.30;;;;;;;;;;5095273;28;20456;-81
2024/03/28 08:52:20;;;;;;;6.45;5.85;;;;;;;;;;5095533;28;20725;-81
2024/03/28 08:54:46;;;;;;;6.30;5.70;;;;;;;;;;5095175;28;20409;-81
2024/03/28 08:57:12;;;;;;;6.35;5.85;;;;;;;;;;5095698;28;20389;-80
2024/03/28 08:59:39;;;;;;;5.78;5.28;;;;;;;;;;5077168;28;20496;-80
2024/03/28 09:02:07;;;;;;;6.50;5.82;;;;;;;;;;5095554;28;20374;-80
2024/03/28 09:04:33;;;;;;;6.10;5.60;;;;;;;;;;5095801;28;20887;-80
2024/03/28 09:06:59;;;;;;;6.22;5.72;;;;;;;;;;5096363;28;20370;-81
2024/03/28 09:09:25;;;;;;;7.07;6.15;;;;;;;;;;5095651;28;20428;-81
2024/03/28 09:11:51;;;;;;;6.30;5.80;;;;;;;;;;5095175;28;20378;-80
2024/03/28 09:14:17;;;;;;;6.53;5.93;;;;;;;;;;5095098;28;20378;-80
2024/03/28 09:16:43;;;;;;;6.35;5.85;;;;;;;;;;5095494;28;20374;-81
2024/03/28 09:19:09;;;;;;;7.07;6.47;;;;;;;;;;5094868;28;20817;-80
2024/03/28 09:21:35;;;;;;;6.57;6.07;;;;;;;;;;5095302;28;20763;-81
2024/03/28 09:24:01;;;;;;;7.28;6.07;;;;;;;;;;5095416;28;20374;-80
2024/03/28 09:26:28;;;;;;;6.72;6.03;;;;;;;;;;5094644;28;20477;-81
2024/03/28 09:28:58;;;;;;;6.90;6.30;;;;;;;;;;5095621;28;20377;-81
2024/03/28 09:31:27;;;;;;;6.82;6.22;;;;;;;;;;5095501;28;20400;-81
2024/03/28 09:33:53;;;;;;;6.30;5.80;;;;;;;;;;5095369;28;20378;-81
2024/03/28 09:36:19;;;;;;;5.78;5.28;;;;;;;;;;5095811;28;20370;-81
2024/03/28 09:38:50;;;;;;;5.20;4.70;;;;;;;;;;5094810;28;20378;-81
2024/03/28 09:41:30;;;;;;;4.88;4.47;;;;;;;;;;5094743;28;20417;-81
2024/03/28 09:44:06;;;;;;;4.97;4.38;;;;;;;;;;5095699;28;20739;-81
2024/03/28 09:46:34;;;;;;;4.53;4.13;;;;;;;;;;5095408;28;20747;-81
2024/03/28 09:49:00;;;;;;;4.05;3.75;;;;;;;;;;5095166;28;20400;-81
2024/03/28 09:51:27;;;;;;;4.00;3.70;;;;;;;;;;5094851;28;20381;-81
2024/03/28 09:53:53;;;;;;;4.18;3.88;;;;;;;;;;5095222;28;20393;-81
2024/03/28 09:56:20;;;;;;;5.88;4.10;;;;;;;;;;5095200;28;20381;-80
2024/03/28 09:58:46;;;;;;;4.13;3.72;;;;;;;;;;5095209;28;20409;-81
2024/03/28 10:01:12;;;;;;;3.95;3.50;;;;;;;;;;5094916;28;20432;-81
2024/03/28 10:03:39;;;;;;;4.30;4.00;;;;;;;;;;5095194;28;20762;-81
2024/03/28 10:06:06;;;;;;;3.70;3.40;;;;;;;;;;5095273;28;20408;-81
2024/03/28 10:08:32;;;;;;;5.28;4.22;;;;;;;;;;5094345;28;20366;-81
2024/03/28 10:10:59;;;;;;;4.00;3.70;;;;;;;;;;5095715;28;20504;-81
2024/03/28 10:13:38;;;;;;;3.72;3.42;;;;;;;;;;5094665;28;20756;-81
2024/03/28 10:16:06;;;;;;;4.30;4.00;;;;;;;;;;5094503;28;20732;-81
2024/03/28 10:18:32;;;;;;;3.72;3.42;;;;;;;;;;5094543;28;20867;-81
2024/03/28 10:21:02;;;;;;;3.70;3.42;;;;;;;;;;5094893;28;20405;-81
2024/03/28 10:23:29;;;;;;;4.07;3.77;;;;;;;;;;5094965;28;20899;-81
2024/03/28 10:25:55;;;;;;;3.42;3.13;;;;;;;;;;5094802;28;20681;-81
2024/03/28 10:28:23;;;;;;;3.38;2.97;;;;;;;;;;5095382;28;20423;-81
2024/03/28 10:30:50;;;;;;;3.30;3.00;;;;;;;;;;5095480;28;20856;-81
2024/03/28 10:33:16;;;;;;;3.20;3.00;;;;;;;;;;5094499;28;20433;-81
2024/03/28 10:35:42;;;;;;;3.38;3.10;;;;;;;;;;5095333;28;20378;-81
2024/03/28 10:38:12;;;;;;;2.72;2.53;;;;;;;;;;5094733;28;20697;-81
2024/03/28 10:40:38;;;;;;;3.08;2.78;;;;;;;;;;5094337;28;20482;-81
2024/03/28 10:43:06;;;;;;;2.70;2.50;;;;;;;;;;5094870;28;20370;-81
2024/03/28 10:45:33;;;;;;;2.08;1.98;;;;;;;;;;5094534;28;20386;-81
2024/03/28 10:48:00;;;;;;;2.58;2.38;;;;;;;;;;5094579;28;20378;-81
2024/03/28 10:50:49;;;;;;;2.13;2.03;;;;;;;;;;5094162;28;20536;-81
2024/03/28 10:53:28;;;;;;;2.03;1.92;;;;;;;;;;5094604;28;20382;-81
2024/03/28 10:56:00;;;;;;;2.03;1.93;;;;;;;;;;5094862;28;20432;-81
2024/03/28 10:58:26;;;;;;;1.73;1.63;;;;;;;;;;5095141;28;20420;-81
2024/03/28 11:00:54;;;;;;;1.92;1.80;;;;;;;;;;5094112;28;20402;-81
2024/03/28 11:03:20;;;;;;;2.17;2.00;;;;;;;;;;5094592;28;20378;-81
2024/03/28 11:05:46;;;;;;;1.65;1.55;;;;;;;;;;5096289;28;20452;-81
2024/03/28 11:08:13;;;;;;;1.60;1.50;;;;;;;;;;5096060;28;20891;-80
2024/03/28 11:10:39;;;;;;;1.67;1.58;;;;;;;;;;5095820;28;20379;-81
2024/03/28 11:13:07;;;;;;;1.70;1.40;;;;;;;;;;5098189;28;20744;-81
2024/03/28 11:15:33;;;;;;;1.70;1.60;;;;;;;;;;5097956;28;20430;-81
2024/03/28 11:17:59;;;;;;;1.58;1.00;;;;;;;;;;5098596;28;20378;-81
2024/03/28 11:20:25;;;;;;;1.38;1.13;;;;;;;;;;5098312;28;20767;-81
2024/03/28 11:22:51;;;;;;;2.13;1.40;;;;;;;;;;5098927;28;20382;-81
2024/03/28 11:25:26;;;;;;;1.70;1.30;;;;;;;;;;5098949;28;20389;-81
2024/03/28 11:28:02;;;;;;;1.73;1.13;;;;;;;;;;5099293;28;20370;-82
2024/03/28 11:30:28;;;;;;;2.30;1.58;;;;;;;;;;5101233;28;20435;-81
2024/03/28 11:33:03;;;;;;;2.35;1.50;;;;;;;;;;5089162;28;20797;-82
2024/03/28 11:35:29;;;;;;;1.50;1.40;;;;;;;;;;5105799;28;20370;-81
2024/03/28 11:38:05;;;;;;;1.55;1.23;;;;;;;;;;5105851;28;20918;-81
2024/03/28 11:40:31;;;;;;;1.38;0.90;;;;;;;;;;5105282;28;20402;-81
2024/03/28 11:43:26;;;;;;;1.30;1.10;;;;;;;;;;5106132;28;20452;-80
2024/03/28 11:46:00;;;;;;;1.40;1.30;;;;;;;;;;5089895;28;20744;-81
2024/03/28 11:48:27;;;;;;;1.20;1.10;;;;;;;;;;5106316;28;20402;-81
2024/03/28 11:50:54;;;;;;;1.23;1.10;;;;;;;;;;5105787;28;20766;-81
2024/03/28 11:53:20;;;;;;;1.80;1.13;;;;;;;;;;5106567;28;20461;-81
2024/03/28 11:55:47;;;;;;;1.40;1.30;;;;;;;;;;5087393;28;20930;-81
2024/03/28 11:58:23;;;;;;;0.90;0.90;;;;;;;;;;5105166;28;20901;-81
2024/03/28 12:00:49;;;;;;;1.20;1.00;;;;;;;;;;5085937;28;20406;-81
2024/03/28 12:03:15;;;;;;;1.33;1.15;;;;;;;;;;5085520;28;20388;-81
2024/03/28 12:05:42;;;;;;;0.82;0.80;;;;;;;;;;5085135;28;20384;-81
2024/03/28 12:08:08;;;;;;;1.27;1.02;;;;;;;;;;5085571;28;20383;-81
2024/03/28 12:10:34;;;;;;;1.07;0.77;;;;;;;;;;5084768;28;20387;-82
2024/03/28 12:13:01;;;;;;;1.27;0.90;;;;;;;;;;5084778;28;20387;-82
2024/03/28 12:15:27;;;;;;;1.00;0.90;;;;;;;;;;5084526;28;20403;-81
2024/03/28 12:17:57;;;;;;;1.15;0.65;;;;;;;;;;5084218;28;20884;-82
2024/03/28 12:20:23;;;;;;;1.10;1.00;;;;;;;;;;5066140;28;20403;-82
2024/03/28 12:22:54;;;;;;;0.93;0.70;;;;;;;;;;5083892;28;20380;-82
2024/03/28 12:25:20;;;;;;;0.80;0.70;;;;;;;;;;5084333;28;20383;-81
2024/03/28 12:27:55;;;;;;;0.50;0.50;;;;;;;;;;5084646;28;20378;-82
2024/03/28 12:30:21;;;;;;;1.40;1.00;;;;;;;;;;5084434;28;20379;-81
2024/03/28 12:32:47;;;;;;;1.10;0.90;;;;;;;;;;5062872;28;20763;-82
2024/03/28 12:35:13;;;;;;;1.38;1.08;;;;;;;;;;5064989;28;20484;-79
2024/03/28 12:37:41;;;;;;;2.05;1.42;;;;;;;;;;5065146;28;20385;-80
2024/03/28 12:40:13;;;;;;;1.80;1.20;;;;;;;;;;5064253;28;20926;-79
2024/03/28 12:42:44;;;;;;;1.77;1.25;;;;;;;;;;5063807;28;20465;-80
2024/03/28 12:45:11;;;;;;;4.63;1.63;;;;;;;;;;5064861;28;20759;-79
2024/03/28 12:47:37;;;;;;;1.70;1.30;;;;;;;;;;5084501;28;20376;-82
2024/03/28 12:50:03;;;;;;;1.50;1.00;;;;;;;;;;5084851;28;20389;-80
2024/03/28 12:52:30;;;;;;;2.13;1.45;;;;;;;;;;5082968;28;20399;-80
2024/03/28 12:54:57;;;;;;;1.52;1.10;;;;;;;;;;5082507;28;20386;-79
2024/03/28 12:57:22;;;;;;;1.83;1.08;;;;;;;;;;5083603;28;20384;-80
2024/03/28 12:59:48;;;;;;;1.70;0.90;;;;;;;;;;5083679;28;20423;-79
2024/03/28 13:02:14;;;;;;;1.02;0.93;;;;;;;;;;5082923;28;20376;-79
2024/03/28 13:04:40;;;;;;;1.13;0.90;;;;;;;;;;5082449;28;20386;-79
2024/03/28 13:07:11;;;;;;;1.55;0.93;;;;;;;;;;5083125;28;20372;-79
2024/03/28 13:09:37;;;;;;;1.38;0.90;;;;;;;;;;5082085;28;20383;-79
2024/03/28 13:12:04;;;;;;;0.80;0.77;;;;;;;;;;5082539;28;20408;-79
2024/03/28 13:14:31;;;;;;;1.00;0.90;;;;;;;;;;5083270;28;20722;-79
2024/03/28 13:16:57;;;;;;;1.10;0.90;;;;;;;;;;5082774;28;20386;-79
2024/03/28 13:19:24;;;;;;;0.90;0.80;;;;;;;;;;5082681;28;20384;-79
2024/03/28 13:21:51;;;;;;;0.80;0.80;;;;;;;;;;5083599;28;20414;-79
2024/03/28 13:24:17;;;;;;;1.02;0.50;;;;;;;;;;5082052;28;20376;-79
2024/03/28 13:26:43;;;;;;;1.00;0.60;;;;;;;;;;5082982;28;20975;-79
2024/03/28 13:29:09;;;;;;;0.75;0.55;;;;;;;;;;5081858;28;20841;-79
2024/03/28 13:31:36;;;;;;;0.43;0.35;;;;;;;;;;5088396;28;20417;-79
2024/03/28 13:34:02;;;;;;;0.73;0.47;;;;;;;;;;5101097;28;20382;-79
2024/03/28 13:36:28;;;;;;;0.60;0.50;;;;;;;;;;5102430;28;20428;-79
2024/03/28 13:38:54;;;;;;;0.88;0.55;;;;;;;;;;5103556;28;20400;-79
2024/03/28 13:41:20;;;;;;;0.90;0.50;;;;;;;;;;5103100;28;20410;-79
2024/03/28 13:43:46;;;;;;;0.70;0.40;;;;;;;;;;5084680;28;20386;-79
2024/03/28 13:49:25;;;;;;;0.60;0.35;;;;;;;;;;5102873;28;20385;-79
2024/03/28 13:51:51;;;;;;;0.65;0.45;;;;;;;;;;5102599;28;20840;-79
2024/03/28 13:54:17;;;;;;;0.20;0.10;;;;;;;;;;5102151;28;20409;-79
2024/03/28 13:56:43;;;;;;;1.10;0.30;;;;;;;;;;5101019;28;20457;-79
2024/03/28 13:59:09;;;;;;;0.80;0.20;;;;;;;;;;5101404;28;20796;-79
2024/03/28 14:01:38;;;;;;;0.32;0.13;;;;;;;;;;5100313;28;20678;-79
2024/03/28 14:04:04;;;;;;;0.80;0.20;;;;;;;;;;5100582;28;20438;-79
2024/03/28 14:06:32;;;;;;;1.10;0.30;;;;;;;;;;5100289;28;20378;-79
2024/03/28 14:08:59;;;;;;;0.50;0.20;;;;;;;;;;5100765;28;20389;-79
2024/03/28 14:11:26;;;;;;;1.23;0.30;;;;;;;;;;5100527;28;20378;-79
2024/03/28 14:13:52;;;;;;;0.70;0.30;;;;;;;;;;5100623;28;20906;-79
2024/03/28 14:16:18;;;;;;;0.50;0.22;;;;;;;;;;5100193;28;20433;-79
2024/03/28 14:18:44;;;;;;;0.85;0.30;;;;;;;;;;5100032;28;20408;-79
2024/03/28 14:21:10;;;;;;;0.95;0.20;;;;;;;;;;5099753;28;20413;-79
2024/03/28 14:23:37;;;;;;;0.40;0.15;;;;;;;;;;5098954;28;20461;-79
2024/03/28 14:26:04;;;;;;;0.40;0.15;;;;;;;;;;5099318;28;20528;-79
2024/03/28 14:28:30;;;;;;;0.32;0.20;;;;;;;;;;5100459;28;20378;-79
2024/03/28 14:30:56;;;;;;;0.75;0.28;;;;;;;;;;5099761;28;20761;-79
2024/03/28 14:33:22;;;;;;;0.68;0.30;;;;;;;;;;5099717;28;20382;-79
2024/03/28 14:35:48;;;;;;;0.50;0.28;;;;;;;;;;5100475;28;20844;-79
2024/03/28 14:38:14;;;;;;;0.50;0.20;;;;;;;;;;5092401;28;20857;-79
2024/03/28 14:40:41;;;;;;;0.55;0.30;;;;;;;;;;5098957;28;20414;-79
2024/03/28 14:43:07;;;;;;;1.88;0.20;;;;;;;;;;5099846;28;20373;-79
2024/03/28 14:45:35;;;;;;;0.57;0.13;;;;;;;;;;5099004;28;20378;-80
2024/03/28 14:48:02;;;;;;;0.77;0.38;;;;;;;;;;5102925;28;20878;-80